map of SSH home
Great Circle Mapper logo
SSH - Airport
Location
City:  Sharm el-Sheikh, Janub Sina (South Sinai), Egypt
Near (Alt.):Ras Nasrani
Name:Sharm el-Sheikh International Airport
Old (Alt.):Ophira International Airport
ICAO:HESH
IATA:SSH

Details
Type:Airport (Aerodrome, Airfield)
Use:Public/Civil, International (customs port of entry)
Latitude:2758'38"N (27.977286)
Longitude:3423'42"E (34.394950)
Datum:WGS 1984
Elevation:143 ft (44 m)
Variation:4.15E (WMM2015 magnetic declination)
0.08 annual change
Runways:2
Longest:10108 × 148 ft (3081 × 45 m), paved

Time
Time Zone:UTC+2 (DST+3)

Weather
METAR:HESH 040500Z 00000KT CAVOK 29/15 Q1009 NOSIG
TAF:HESH 032300Z 0400/0506 33010G20KT CAVOK
TEMPO 0405/0415 3000 SA NSC

Related Locations
Nearby:
Farthest:RVV: 12123 mi / 19510 km
Raivavae, Tubuai Islands, Austral Islands, PF

Find:

   beyond  
but within

Other Information
Maps:
NOTAMs:
Links:
Sources:

  
flag of Egypt
flag of Janub Sina (South Sinai)
  

Sectional Chart

Flight Planning
at skyvector.com

Satellite Image

Google Maps Satellite view

 

Copyright © 2004-2016 Karl L. Swartz. All rights reserved.
The Great Circle Mapper name and logo are trademarks of the Great Circle Mapper.
All other trademarks mentioned herein belong to their respective owners.
Please see credits for attibutions and further copyright information.

  Follow gcmap on Facebook Follow gcmap on Twitter Follow gcmap on Google+ GCmap on LinkedIn

hCard Microformat

Geo Microformat